Time;durP1;ratioP1;P1;durP2;ratioP2;P2;SDS_P1;SDS_P2;PMS_P1;PMS_P2;Temp;Humidity;BMP_temperature;BMP_pressure;BME280_temperature;BME280_humidity;BME280_pressure;Samples;Min_cycle;Max_cycle;Signal;HPM_P1;HPM_P2
2021/11/06 00:02:41;;;;;;;7.57;4.40;;;10.40;98.70;;;;;;5067810;28;20483;-62
2021/11/06 00:05:25;;;;;;;8.45;5.10;;;10.50;98.70;;;;;;5060456;28;20071;-63
2021/11/06 00:08:09;;;;;;;8.82;4.38;;;10.50;98.70;;;;;;5064538;28;20515;-63
2021/11/06 00:10:53;;;;;;;9.52;4.38;;;10.50;98.80;;;;;;5061021;28;20039;-64
2021/11/06 00:13:19;;;;;;;8.13;5.00;;;10.40;98.80;;;;;;5066008;28;20037;-63
2021/11/06 00:16:03;;;;;;;8.68;4.20;;;10.50;98.80;;;;;;5057768;28;20039;-63
2021/11/06 00:18:47;;;;;;;10.40;5.18;;;10.50;98.80;;;;;;5071828;28;20089;-63
2021/11/06 00:21:31;;;;;;;7.95;4.20;;;10.50;98.80;;;;;;5060948;28;20097;-63
2021/11/06 00:24:15;;;;;;;8.35;5.00;;;10.40;98.80;;;;;;5070588;28;20082;-63
2021/11/06 00:26:59;;;;;;;10.05;5.22;;;10.50;98.80;;;;;;5051874;28;20035;-63
2021/11/06 00:29:43;;;;;;;8.93;4.80;;;10.40;98.90;;;;;;5055359;28;20043;-63
2021/11/06 00:32:27;;;;;;;7.07;4.13;;;10.40;98.90;;;;;;5070081;28;20158;-63
2021/11/06 00:35:13;;;;;;;7.93;4.53;;;10.40;98.90;;;;;;5061510;28;20094;-63
2021/11/06 00:37:57;;;;;;;8.23;4.22;;;10.50;99.00;;;;;;5070901;28;20546;-63
2021/11/06 00:40:41;;;;;;;8.95;4.40;;;10.40;99.00;;;;;;5062228;28;20108;-63
2021/11/06 00:43:25;;;;;;;9.15;5.07;;;10.50;99.00;;;;;;5051047;28;20117;-64
2021/11/06 00:46:09;;;;;;;10.38;4.65;;;10.50;99.00;;;;;;5067649;28;20136;-64
2021/11/06 00:48:53;;;;;;;9.27;5.07;;;10.60;99.00;;;;;;5069771;28;20039;-63
2021/11/06 00:51:37;;;;;;;6.90;3.97;;;10.60;99.00;;;;;;5050790;28;20109;-64
2021/11/06 00:54:21;;;;;;;9.93;4.43;;;10.60;99.00;;;;;;5059907;28;20518;-64
2021/11/06 00:57:06;;;;;;;8.77;5.20;;;10.60;99.00;;;;;;5066608;28;20039;-64
2021/11/06 00:59:50;;;;;;;8.90;4.20;;;10.60;98.90;;;;;;5068243;28;20043;-64
2021/11/06 01:02:34;;;;;;;7.40;4.85;;;10.70;99.00;;;;;;5068127;28;20063;-63
2021/11/06 01:05:19;;;;;;;7.82;4.85;;;10.70;99.00;;;;;;5051351;28;20032;-63
2021/11/06 01:08:03;;;;;;;9.05;5.10;;;10.70;98.90;;;;;;5064571;28;20090;-64
2021/11/06 01:10:47;;;;;;;8.30;4.97;;;10.70;98.90;;;;;;5057042;28;20087;-63
2021/11/06 01:13:32;;;;;;;7.68;4.50;;;10.60;98.90;;;;;;5055518;28;20416;-64
2021/11/06 01:16:16;;;;;;;9.85;4.53;;;10.70;99.00;;;;;;5057002;28;20401;-64
2021/11/06 01:19:00;;;;;;;12.57;4.70;;;10.70;98.90;;;;;;5061132;28;20116;-64
2021/11/06 01:21:44;;;;;;;9.15;4.55;;;10.70;98.90;;;;;;5055029;28;20215;-64
2021/11/06 01:24:28;;;;;;;8.50;4.05;;;10.70;98.90;;;;;;5061633;28;20098;-64
2021/11/06 01:27:12;;;;;;;7.32;4.40;;;10.80;98.90;;;;;;5075120;28;20034;-64
2021/11/06 01:29:56;;;;;;;10.32;4.82;;;10.80;98.90;;;;;;5066358;28;20036;-63
2021/11/06 01:32:44;;;;;;;11.02;4.88;;;10.80;98.90;;;;;;5055370;28;20082;-64
2021/11/06 01:35:28;;;;;;;10.98;4.32;;;10.90;98.80;;;;;;5063317;28;20128;-64
2021/11/06 01:38:12;;;;;;;11.35;4.55;;;10.90;98.80;;;;;;5054651;28;20108;-64
2021/11/06 01:40:56;;;;;;;10.57;4.50;;;10.90;98.80;;;;;;5073551;28;20078;-63
2021/11/06 01:43:41;;;;;;;10.95;5.20;;;11.00;98.80;;;;;;5073096;28;20112;-63
2021/11/06 01:46:25;;;;;;;8.70;4.43;;;11.00;98.80;;;;;;5055649;28;20090;-63
2021/11/06 01:49:09;;;;;;;12.55;4.88;;;11.00;98.70;;;;;;5065896;28;20404;-64
2021/11/06 01:51:54;;;;;;;;;;;11.00;98.70;;;;;;5066693;28;20032;-64
2021/11/06 01:54:39;;;;;;;9.85;4.93;;;11.00;98.70;;;;;;5057545;28;19923;-64
2021/11/06 01:57:23;;;;;;;9.30;4.53;;;11.00;98.70;;;;;;5060957;28;20038;-64
2021/11/06 02:00:14;;;;;;;9.18;4.60;;;11.10;98.70;;;;;;5065612;28;20040;-64
2021/11/06 02:02:59;;;;;;;8.75;5.18;;;11.10;98.70;;;;;;5054317;28;20102;-64
2021/11/06 02:05:43;;;;;;;11.70;4.68;;;11.10;98.60;;;;;;5064773;28;20032;-64
2021/11/06 02:08:27;;;;;;;6.53;4.32;;;11.10;98.60;;;;;;5065313;28;20040;-64
2021/11/06 02:11:12;;;;;;;12.02;5.30;;;11.20;98.60;;;;;;5061185;28;20166;-64
2021/11/06 02:13:56;;;;;;;8.27;4.68;;;11.20;98.60;;;;;;5059312;28;20039;-64
2021/11/06 02:16:40;;;;;;;7.70;4.63;;;11.20;98.50;;;;;;5063723;28;20090;-64
2021/11/06 02:19:30;;;;;;;10.13;5.47;;;11.20;98.50;;;;;;5067919;28;20102;-64
2021/11/06 02:22:14;;;;;;;10.57;4.97;;;11.20;98.50;;;;;;5064359;28;20506;-63
2021/11/06 02:24:59;;;;;;;9.53;4.60;;;11.20;98.40;;;;;;5072636;28;20055;-63
2021/11/06 02:27:44;;;;;;;9.60;4.95;;;11.20;98.40;;;;;;5066530;28;20450;-63
2021/11/06 02:30:28;;;;;;;10.40;4.97;;;11.20;98.40;;;;;;5055649;28;20531;-64
2021/11/06 02:33:12;;;;;;;12.48;4.88;;;11.20;98.30;;;;;;5057293;28;20039;-63
2021/11/06 02:36:00;;;;;;;11.07;5.13;;;11.30;98.30;;;;;;5056393;28;20384;-64
2021/11/06 02:38:44;;;;;;;10.07;5.00;;;11.20;98.30;;;;;;5073143;28;20170;-63
2021/11/06 02:41:28;;;;;;;10.55;5.15;;;11.30;98.30;;;;;;5063064;28;20361;-63
2021/11/06 02:44:13;;;;;;;10.90;5.25;;;11.30;98.30;;;;;;5053617;28;20039;-63
2021/11/06 02:46:57;;;;;;;8.80;4.70;;;11.30;98.20;;;;;;5055574;28;20047;-62
2021/11/06 02:49:42;;;;;;;10.57;5.22;;;11.30;98.30;;;;;;5066814;28;20098;-62
2021/11/06 02:52:26;;;;;;;15.48;5.63;;;11.30;98.40;;;;;;5066692;28;20078;-63
2021/11/06 02:55:11;;;;;;;11.60;5.45;;;11.30;98.20;;;;;;5066086;28;20439;-63
2021/11/06 02:57:55;;;;;;;12.18;5.22;;;11.30;98.20;;;;;;5058177;28;20100;-63
2021/11/06 03:00:40;;;;;;;12.80;5.40;;;11.30;98.20;;;;;;5053254;28;20036;-63
2021/11/06 03:03:24;;;;;;;10.65;6.18;;;11.30;98.20;;;;;;5057668;28;20047;-63
2021/11/06 03:06:08;;;;;;;10.02;4.82;;;11.20;98.20;;;;;;5053212;28;20036;-63
2021/11/06 03:08:52;;;;;;;10.27;5.70;;;11.30;98.20;;;;;;5070983;28;20107;-63
2021/11/06 03:11:38;;;;;;;10.70;4.75;;;11.30;98.20;;;;;;5070220;28;20039;-63
2021/11/06 03:14:23;;;;;;;15.38;5.47;;;11.30;98.10;;;;;;5061116;28;20094;-63
2021/11/06 03:17:08;;;;;;;12.70;5.07;;;11.40;98.10;;;;;;5067968;28;20027;-64
2021/11/06 03:19:52;;;;;;;13.20;5.68;;;11.30;98.00;;;;;;5072759;28;20035;-64
2021/11/06 03:22:36;;;;;;;11.30;5.55;;;11.30;98.00;;;;;;5061911;28;20094;-64
2021/11/06 03:25:20;;;;;;;10.35;4.80;;;11.30;98.00;;;;;;5053592;28;20087;-64
2021/11/06 03:28:04;;;;;;;11.88;5.72;;;11.30;97.90;;;;;;5057840;28;20116;-64
2021/11/06 03:30:49;;;;;;;11.23;5.70;;;11.30;97.90;;;;;;5069124;28;20048;-63
2021/11/06 03:33:33;;;;;;;11.85;5.35;;;11.30;97.90;;;;;;5069274;28;20142;-64
2021/11/06 03:36:19;;;;;;;11.43;5.53;;;11.30;97.90;;;;;;5056693;28;20040;-64
2021/11/06 03:39:04;;;;;;;11.07;5.93;;;11.30;97.80;;;;;;5064915;28;20102;-64
2021/11/06 03:41:48;;;;;;;;;;;11.30;97.80;;;;;;5053102;28;20389;-64
2021/11/06 03:44:33;;;;;;;10.65;5.43;;;11.30;97.90;;;;;;5052649;28;19912;-64
2021/11/06 03:47:18;;;;;;;12.00;6.00;;;11.30;97.80;;;;;;5055877;28;20070;-64
2021/11/06 03:50:05;;;;;;;9.63;4.38;;;11.30;97.90;;;;;;5071987;28;20043;-64
2021/11/06 03:52:49;;;;;;;10.77;5.40;;;11.30;97.80;;;;;;5067125;28;20050;-64
2021/11/06 03:55:33;;;;;;;8.98;4.63;;;11.30;97.70;;;;;;5072249;28;20055;-64
2021/11/06 03:58:17;;;;;;;11.07;5.35;;;11.30;97.70;;;;;;5058502;28;20036;-64
2021/11/06 04:01:03;;;;;;;9.50;4.70;;;11.30;97.70;;;;;;5059763;28;20035;-64
2021/11/06 04:03:47;;;;;;;13.25;4.97;;;11.30;97.70;;;;;;5071873;28;20249;-64
2021/11/06 04:06:32;;;;;;;7.57;4.43;;;11.30;97.70;;;;;;5068270;28;20129;-64
2021/11/06 04:09:16;;;;;;;6.93;4.22;;;11.30;97.70;;;;;;5050798;28;20620;-64
2021/11/06 04:12:00;;;;;;;10.65;4.65;;;11.30;97.70;;;;;;5061526;28;20044;-64
2021/11/06 04:14:44;;;;;;;9.95;4.53;;;11.30;97.60;;;;;;5051934;28;20047;-64
2021/11/06 04:17:28;;;;;;;11.27;4.68;;;11.20;97.60;;;;;;5069237;28;20185;-63
2021/11/06 04:20:12;;;;;;;9.52;4.28;;;11.30;97.70;;;;;;5067201;28;20105;-64
2021/11/06 04:22:56;;;;;;;8.13;4.20;;;11.30;97.70;;;;;;5058215;28;20396;-64
2021/11/06 04:25:40;;;;;;;8.10;4.38;;;11.30;97.70;;;;;;5051188;28;20082;-64
2021/11/06 04:28:25;;;;;;;9.80;4.55;;;11.30;97.60;;;;;;5051511;28;20045;-63
2021/11/06 04:31:09;;;;;;;9.90;4.45;;;11.30;97.60;;;;;;5050575;28;20546;-63
2021/11/06 04:33:54;;;;;;;13.75;4.43;;;11.30;97.60;;;;;;5051682;28;20051;-63
2021/11/06 04:36:37;;;;;;;8.35;4.20;;;11.30;97.60;;;;;;5060957;28;20031;-63
2021/11/06 04:39:22;;;;;;;8.40;3.97;;;11.30;97.70;;;;;;5071285;28;20114;-63
2021/11/06 04:42:07;;;;;;;10.23;4.32;;;11.30;97.70;;;;;;5062127;28;20246;-63
2021/11/06 04:44:50;;;;;;;9.02;4.28;;;11.30;97.60;;;;;;5051661;28;20500;-63
2021/11/06 04:47:35;;;;;;;11.35;4.15;;;11.30;97.60;;;;;;5067631;28;20036;-63
2021/11/06 04:50:19;;;;;;;12.65;4.53;;;11.30;97.60;;;;;;5070880;28;20043;-63
2021/11/06 04:53:03;;;;;;;6.35;3.47;;;11.30;97.60;;;;;;5060064;28;20922;-63
2021/11/06 04:55:47;;;;;;;7.55;3.88;;;11.30;97.60;;;;;;5069115;28;20395;-63
2021/11/06 04:58:32;;;;;;;11.00;4.22;;;11.30;97.60;;;;;;5069757;28;20393;-63
2021/11/06 05:01:17;;;;;;;8.40;3.40;;;11.30;97.60;;;;;;5052745;28;20496;-63
2021/11/06 05:04:01;;;;;;;8.55;3.70;;;11.30;97.50;;;;;;5063148;28;20426;-63
2021/11/06 05:06:45;;;;;;;9.40;3.53;;;11.20;97.50;;;;;;5067549;28;20050;-63
2021/11/06 05:09:30;;;;;;;6.13;3.00;;;11.30;97.50;;;;;;5066718;28;20047;-63
2021/11/06 05:12:14;;;;;;;10.13;3.95;;;11.30;97.50;;;;;;5060685;28;20040;-63
2021/11/06 05:14:58;;;;;;;7.30;3.35;;;11.30;97.50;;;;;;5050896;28;20040;-63
2021/11/06 05:17:42;;;;;;;6.80;3.28;;;11.30;97.50;;;;;;5051023;28;20037;-63
2021/11/06 05:20:26;;;;;;;8.55;3.20;;;11.30;97.50;;;;;;5052483;28;20159;-63
2021/11/06 05:23:13;;;;;;;6.07;2.65;;;11.30;97.40;;;;;;5055323;28;20071;-63
2021/11/06 05:25:58;;;;;;;7.25;3.25;;;11.30;97.40;;;;;;5055692;28;20491;-63
2021/11/06 05:28:42;;;;;;;6.03;3.00;;;11.30;97.40;;;;;;5051420;28;20106;-63
2021/11/06 05:31:26;;;;;;;6.25;2.75;;;11.30;97.40;;;;;;5057982;28;20098;-63
2021/11/06 05:34:11;;;;;;;7.72;3.20;;;11.30;97.40;;;;;;5069394;28;20031;-62
2021/11/06 05:36:55;;;;;;;9.30;2.63;;;11.20;97.40;;;;;;5064470;28;20039;-63
2021/11/06 05:39:39;;;;;;;7.00;2.70;;;11.20;97.40;;;;;;5058274;28;20060;-63
2021/11/06 05:42:23;;;;;;;8.88;2.38;;;11.20;97.40;;;;;;5069864;28;20590;-63
2021/11/06 05:45:08;;;;;;;6.57;2.47;;;11.30;97.40;;;;;;5069495;28;20040;-63
2021/11/06 05:47:53;;;;;;;9.95;2.75;;;11.20;97.30;;;;;;5069939;28;20040;-63
2021/11/06 05:50:37;;;;;;;5.57;2.45;;;11.30;97.30;;;;;;5054498;28;20198;-63
2021/11/06 05:53:21;;;;;;;5.97;2.60;;;11.30;97.30;;;;;;5050252;28;20048;-63
2021/11/06 05:56:05;;;;;;;6.20;2.65;;;11.20;97.30;;;;;;5069009;28;20082;-63
2021/11/06 05:58:49;;;;;;;5.82;2.92;;;11.30;97.30;;;;;;5061761;28;20086;-64
2021/11/06 06:01:34;;;;;;;5.30;2.65;;;11.30;97.30;;;;;;5053852;28;20055;-63
2021/11/06 06:04:18;;;;;;;9.98;2.78;;;11.30;97.30;;;;;;5058345;28;20026;-63
2021/11/06 06:07:03;;;;;;;6.00;3.22;;;11.30;97.30;;;;;;5066012;28;20048;-64
2021/11/06 06:09:47;;;;;;;7.00;2.67;;;11.30;97.30;;;;;;5056644;28;20048;-63
2021/11/06 06:12:32;;;;;;;8.45;3.20;;;11.30;97.20;;;;;;5052212;28;20063;-64
2021/11/06 06:14:57;;;;;;;7.30;3.40;;;11.30;97.20;;;;;;5056014;28;20052;-64
2021/11/06 06:17:23;;;;;;;6.38;2.70;;;11.30;97.20;;;;;;5055014;28;20033;-61
2021/11/06 06:19:48;;;;;;;5.80;3.28;;;11.30;97.20;;;;;;5057219;28;20032;-60
2021/11/06 06:22:14;;;;;;;8.77;3.35;;;11.30;97.20;;;;;;5054007;28;20021;-61
2021/11/06 06:24:40;;;;;;;6.65;3.22;;;11.40;97.20;;;;;;5052163;28;20396;-61
2021/11/06 06:27:05;;;;;;;7.22;3.00;;;11.30;97.30;;;;;;5052741;28;20021;-62
2021/11/06 06:29:32;;;;;;;6.35;3.58;;;11.40;97.20;;;;;;5055859;28;20041;-62
2021/11/06 06:31:57;;;;;;;7.38;4.05;;;11.40;97.10;;;;;;5055495;28;20021;-62
2021/11/06 06:34:22;;;;;;;8.63;3.65;;;11.40;97.10;;;;;;5052483;28;20351;-61
2021/11/06 06:36:48;;;;;;;5.63;2.83;;;11.40;97.10;;;;;;5055981;28;20085;-61
2021/11/06 06:39:13;;;;;;;7.43;3.30;;;11.40;97.10;;;;;;5071814;28;20047;-61
2021/11/06 06:41:39;;;;;;;5.70;3.53;;;11.40;97.10;;;;;;5053061;28;20035;-61
2021/11/06 06:44:04;;;;;;;7.10;3.40;;;11.50;97.10;;;;;;5055744;28;20112;-61
2021/11/06 06:46:30;;;;;;;5.95;3.35;;;11.50;97.00;;;;;;5054972;28;20029;-61
2021/11/06 06:48:55;;;;;;;6.28;3.25;;;11.50;97.00;;;;;;5058319;28;20513;-61
2021/11/06 06:51:21;;;;;;;5.78;3.38;;;11.50;96.90;;;;;;5055754;28;20041;-61
2021/11/06 06:53:46;;;;;;;7.03;3.53;;;11.50;96.90;;;;;;5054302;28;20040;-61
2021/11/06 06:56:12;;;;;;;6.07;3.92;;;11.50;97.00;;;;;;5055516;28;20037;-61
2021/11/06 06:58:38;;;;;;;6.55;3.20;;;11.50;96.90;;;;;;5061209;28;20029;-61
2021/11/06 07:01:03;;;;;;;8.52;3.10;;;11.50;96.90;;;;;;5055672;28;20024;-61
2021/11/06 07:03:29;;;;;;;8.65;3.60;;;11.60;96.90;;;;;;5052202;28;20040;-62
2021/11/06 07:05:54;;;;;;;10.35;3.60;;;11.60;96.90;;;;;;5061496;28;20529;-62
2021/11/06 07:08:21;;;;;;;6.18;3.13;;;11.70;96.80;;;;;;5055029;28;20050;-62
2021/11/06 07:10:47;;;;;;;8.23;3.30;;;11.70;96.80;;;;;;5050336;28;20041;-62
2021/11/06 07:13:18;;;;;;;6.68;3.35;;;11.70;96.70;;;;;;5056065;28;20103;-62
2021/11/06 07:15:44;;;;;;;7.80;3.22;;;11.80;96.70;;;;;;5055227;28;20033;-61
2021/11/06 07:18:10;;;;;;;8.07;3.33;;;11.80;96.60;;;;;;5053875;28;20049;-62
2021/11/06 07:20:35;;;;;;;6.93;3.30;;;11.90;96.60;;;;;;5051505;28;20059;-62
2021/11/06 07:23:01;;;;;;;8.45;3.63;;;11.90;96.80;;;;;;5055518;28;20031;-62
2021/11/06 07:25:26;;;;;;;6.15;4.35;;;11.90;96.50;;;;;;5072010;28;20017;-62
2021/11/06 07:27:52;;;;;;;6.13;3.47;;;12.00;96.50;;;;;;5072359;28;20484;-62
2021/11/06 07:30:18;;;;;;;7.07;3.15;;;12.00;96.40;;;;;;5071373;28;20040;-61
2021/11/06 07:32:43;;;;;;;6.80;3.40;;;12.10;96.40;;;;;;5067221;28;20036;-61
2021/11/06 07:35:09;;;;;;;7.88;3.55;;;12.10;96.30;;;;;;5055448;28;20473;-61
2021/11/06 07:37:36;;;;;;;6.13;3.15;;;12.10;96.30;;;;;;5055190;28;20389;-61
2021/11/06 07:40:03;;;;;;;7.82;3.72;;;12.20;96.20;;;;;;5051220;28;20029;-62
2021/11/06 07:42:28;;;;;;;5.47;3.35;;;12.20;96.10;;;;;;5061412;28;20029;-61
2021/11/06 07:44:54;;;;;;;8.45;3.53;;;12.20;96.00;;;;;;5066644;28;20044;-61
2021/11/06 07:47:19;;;;;;;7.45;3.47;;;12.20;95.90;;;;;;5051844;28;20070;-61
2021/11/06 07:49:45;;;;;;;6.22;3.83;;;12.30;95.90;;;;;;5050397;28;20029;-61
2021/11/06 07:52:11;;;;;;;10.50;4.55;;;12.30;95.80;;;;;;5059608;28;20394;-62
2021/11/06 07:54:36;;;;;;;12.50;5.20;;;12.20;95.70;;;;;;5050936;28;20052;-61
2021/11/06 07:57:02;;;;;;;7.47;3.67;;;12.30;95.70;;;;;;5054004;28;20505;-62
2021/11/06 07:59:27;;;;;;;8.90;3.78;;;12.20;95.60;;;;;;5051264;28;20028;-62
2021/11/06 08:01:53;;;;;;;6.68;4.03;;;12.30;95.60;;;;;;5050836;28;20086;-62
2021/11/06 08:04:19;;;;;;;7.28;3.67;;;12.20;95.60;;;;;;5052071;28;20052;-62
2021/11/06 08:06:44;;;;;;;6.95;4.60;;;12.30;95.60;;;;;;5056225;28;20020;-62
2021/11/06 08:09:10;;;;;;;8.38;4.13;;;12.30;95.60;;;;;;5065864;28;20052;-62
2021/11/06 08:11:35;;;;;;;8.70;4.05;;;12.30;95.50;;;;;;5055373;28;20021;-62
2021/11/06 08:14:01;;;;;;;11.05;4.60;;;12.20;95.40;;;;;;5049943;28;20041;-63
2021/11/06 08:16:26;;;;;;;7.97;3.97;;;12.30;95.40;;;;;;5054391;28;20017;-62
2021/11/06 08:18:52;;;;;;;6.03;3.33;;;12.30;95.40;;;;;;5060645;28;20468;-62
2021/11/06 08:21:18;;;;;;;10.65;4.43;;;12.30;95.30;;;;;;5057815;28;20084;-63
2021/11/06 08:23:44;;;;;;;5.10;3.42;;;12.30;95.30;;;;;;5058931;28;20033;-63
2021/11/06 08:26:10;;;;;;;6.72;4.03;;;12.30;95.20;;;;;;5066821;28;20074;-62
2021/11/06 08:28:35;;;;;;;6.88;3.95;;;12.30;95.20;;;;;;5061587;28;20389;-62
2021/11/06 08:31:01;;;;;;;9.27;4.47;;;12.30;95.20;;;;;;5058374;28;20486;-63
2021/11/06 08:33:31;;;;;;;9.80;4.93;;;12.30;95.20;;;;;;5059058;28;20453;-63
2021/11/06 08:35:56;;;;;;;7.15;4.40;;;12.40;95.10;;;;;;5052497;28;20036;-62
2021/11/06 08:38:22;;;;;;;8.88;3.88;;;12.40;95.10;;;;;;5055177;28;20021;-61
2021/11/06 08:40:48;;;;;;;8.23;4.97;;;12.50;95.10;;;;;;5061897;28;20059;-64
2021/11/06 08:43:13;;;;;;;5.60;3.67;;;12.50;95.10;;;;;;5058026;28;20036;-64
2021/11/06 08:45:39;;;;;;;8.38;4.45;;;12.60;95.00;;;;;;5061285;28;20120;-63
2021/11/06 08:48:05;;;;;;;8.00;4.38;;;12.70;95.10;;;;;;5060553;28;20086;-63
2021/11/06 08:50:30;;;;;;;11.30;4.38;;;12.70;95.00;;;;;;5065077;28;20101;-63
2021/11/06 08:52:57;;;;;;;9.43;3.88;;;12.80;94.90;;;;;;5053303;28;20033;-63
2021/11/06 08:55:24;;;;;;;9.63;4.45;;;12.80;94.80;;;;;;5049718;28;20029;-64
2021/11/06 08:57:49;;;;;;;7.50;3.90;;;12.80;94.70;;;;;;5057248;28;20064;-64
2021/11/06 09:00:32;;;;;;;7.32;4.13;;;12.90;94.50;;;;;;5049768;28;20425;-62
2021/11/06 09:03:03;;;;;;;7.65;4.20;;;12.90;94.40;;;;;;5056864;28;20029;-65
2021/11/06 09:05:29;;;;;;;8.35;3.88;;;13.00;94.30;;;;;;5050171;28;20029;-64
2021/11/06 09:07:56;;;;;;;5.55;3.70;;;13.00;94.30;;;;;;5051713;28;20112;-65
2021/11/06 09:10:21;;;;;;;7.95;4.47;;;13.00;94.20;;;;;;5049706;28;20086;-64
2021/11/06 09:12:49;;;;;;;8.57;3.80;;;13.10;94.20;;;;;;5050037;28;20029;-64
2021/11/06 09:15:15;;;;;;;6.53;4.00;;;13.10;94.10;;;;;;5050035;28;20528;-63
2021/11/06 09:17:41;;;;;;;8.43;3.83;;;13.10;94.00;;;;;;5051670;28;20116;-64
2021/11/06 09:20:07;;;;;;;6.10;4.20;;;13.10;94.00;;;;;;5052148;28;20040;-65
2021/11/06 09:22:33;;;;;;;7.72;4.00;;;13.10;93.90;;;;;;5053458;28;20030;-64
2021/11/06 09:24:58;;;;;;;5.45;3.78;;;13.10;93.90;;;;;;5051290;28;20024;-64
2021/11/06 09:27:24;;;;;;;8.32;4.53;;;13.10;93.90;;;;;;5057722;28;20047;-64
2021/11/06 09:29:50;;;;;;;7.53;4.20;;;13.20;93.90;;;;;;5052574;28;20079;-65
2021/11/06 09:32:16;;;;;;;9.73;4.28;;;13.20;93.80;;;;;;5060964;28;20109;-64
2021/11/06 09:34:42;;;;;;;10.32;4.18;;;13.20;93.70;;;;;;5066683;28;20190;-64
2021/11/06 09:37:09;;;;;;;6.50;4.43;;;13.20;93.70;;;;;;5065618;28;20024;-64
2021/11/06 09:39:35;;;;;;;7.70;3.95;;;13.20;93.60;;;;;;5054142;28;20048;-64
2021/11/06 09:42:03;;;;;;;12.25;4.95;;;13.30;93.60;;;;;;5069491;28;20021;-64
2021/11/06 09:44:30;;;;;;;14.10;5.30;;;13.30;93.50;;;;;;5056435;28;20051;-64
2021/11/06 09:47:15;;;;;;;6.82;4.45;;;13.30;93.40;;;;;;5074462;28;20031;-64
2021/11/06 09:49:59;;;;;;;7.05;3.80;;;13.30;93.30;;;;;;5074213;28;20044;-65
2021/11/06 09:52:48;;;;;;;6.22;4.13;;;13.40;93.40;;;;;;5062308;28;20507;-64
2021/11/06 09:55:32;;;;;;;6.07;3.95;;;13.40;93.20;;;;;;5075072;28;20377;-63
2021/11/06 09:58:17;;;;;;;7.97;4.07;;;13.40;93.40;;;;;;5058010;28;20090;-63
2021/11/06 10:01:03;;;;;;;6.00;3.35;;;13.50;93.60;;;;;;5057747;28;20059;-64
2021/11/06 10:03:49;;;;;;;5.80;3.80;;;13.50;93.30;;;;;;5061015;28;20489;-64
2021/11/06 10:06:26;;;;;;;10.68;3.90;;;13.50;93.20;;;;;;5056850;28;20024;-64
2021/11/06 10:08:54;;;;;;;8.98;3.90;;;13.60;93.20;;;;;;5059197;28;20090;-64
2021/11/06 10:11:46;;;;;;;7.38;3.20;;;13.60;93.10;;;;;;5055224;28;20405;-64
2021/11/06 10:14:20;;;;;;;4.90;3.35;;;13.70;93.10;;;;;;5053979;28;20021;-63
2021/11/06 10:16:57;;;;;;;8.10;3.80;;;13.70;93.00;;;;;;5058985;28;20066;-64
2021/11/06 10:19:39;;;;;;;7.05;3.65;;;13.70;93.00;;;;;;5053799;28;20029;-64
2021/11/06 10:22:14;;;;;;;6.03;3.42;;;13.70;92.90;;;;;;5058955;28;20039;-63
2021/11/06 10:24:46;;;;;;;7.50;3.75;;;13.70;92.80;;;;;;5057213;28;20075;-63
2021/11/06 10:27:32;;;;;;;5.43;3.10;;;13.70;92.80;;;;;;5061725;28;20071;-65
2021/11/06 10:30:36;;;;;;;5.93;3.60;;;13.80;92.80;;;;;;5066541;28;20075;-64
2021/11/06 10:33:20;;;;;;;5.70;3.58;;;13.80;92.80;;;;;;5056218;28;20113;-64
2021/11/06 10:35:54;;;;;;;4.55;3.22;;;13.90;92.70;;;;;;5063634;28;20029;-64
2021/11/06 10:38:28;;;;;;;5.15;3.33;;;13.90;92.70;;;;;;5060434;28;20497;-64
2021/11/06 10:41:03;;;;;;;6.73;3.47;;;14.00;92.60;;;;;;5059150;28;20486;-64
2021/11/06 10:43:31;;;;;;;7.45;3.28;;;14.00;92.50;;;;;;5060716;28;20029;-64
2021/11/06 10:45:59;;;;;;;5.32;3.00;;;14.00;92.40;;;;;;5058279;28;20036;-64
2021/11/06 10:48:30;;;;;;;7.13;3.40;;;14.00;92.50;;;;;;5062662;28;20116;-64
2021/11/06 10:51:03;;;;;;;4.78;3.40;;;14.00;92.40;;;;;;5063890;28;20041;-64
2021/11/06 10:53:45;;;;;;;6.10;2.90;;;14.10;92.50;;;;;;5060390;28;20136;-64
2021/11/06 10:56:13;;;;;;;4.90;3.10;;;14.10;92.50;;;;;;5062355;28;20025;-64
2021/11/06 10:58:40;;;;;;;3.67;2.95;;;14.20;92.40;;;;;;5056490;28;20040;-64
2021/11/06 11:01:40;;;;;;;4.38;3.08;;;14.10;92.20;;;;;;5060279;28;20071;-64
2021/11/06 11:04:09;;;;;;;8.27;3.50;;;14.10;92.20;;;;;;5057362;28;20475;-64
2021/11/06 11:06:47;;;;;;;5.68;3.15;;;14.10;92.20;;;;;;5053155;28;20063;-64
2021/11/06 11:09:19;;;;;;;7.13;3.58;;;14.20;92.20;;;;;;5052561;28;20028;-64
2021/11/06 11:11:46;;;;;;;7.32;3.22;;;14.20;92.20;;;;;;5053084;28;20076;-64
2021/11/06 11:14:15;;;;;;;4.82;3.00;;;14.10;92.20;;;;;;5052506;28;20017;-65
2021/11/06 11:16:50;;;;;;;7.10;3.65;;;14.10;92.10;;;;;;5053266;28;20090;-65
2021/11/06 11:19:16;;;;;;;7.28;3.20;;;14.20;92.20;;;;;;5052909;28;20027;-65
2021/11/06 11:21:43;;;;;;;4.47;2.92;;;14.20;92.30;;;;;;5053055;28;20032;-65
2021/11/06 11:24:11;;;;;;;5.65;2.75;;;14.20;92.20;;;;;;5052618;28;20027;-65
2021/11/06 11:26:44;;;;;;;7.63;3.70;;;14.20;92.20;;;;;;5069548;28;20128;-65
2021/11/06 11:29:12;;;;;;;6.13;3.95;;;14.20;92.20;;;;;;5072903;28;20044;-65
2021/11/06 11:31:40;;;;;;;5.65;3.38;;;14.20;92.10;;;;;;5070805;28;20029;-65
2021/11/06 11:34:08;;;;;;;5.00;3.05;;;14.10;92.00;;;;;;5055641;28;20079;-65
2021/11/06 11:36:35;;;;;;;4.55;3.10;;;14.10;92.10;;;;;;5053031;28;20119;-65
2021/11/06 11:39:09;;;;;;;4.85;3.00;;;14.10;92.10;;;;;;5052490;28;20044;-64
2021/11/06 11:41:43;;;;;;;6.20;3.17;;;14.10;92.00;;;;;;5051504;28;20550;-65
2021/11/06 11:44:41;;;;;;;5.93;3.47;;;14.00;92.10;;;;;;5052727;28;20260;-64
2021/11/06 11:47:39;;;;;;;4.25;3.08;;;14.00;92.10;;;;;;5056924;28;20056;-65
2021/11/06 11:50:10;;;;;;;4.68;3.20;;;14.00;92.00;;;;;;5055175;28;20089;-64
2021/11/06 11:52:37;;;;;;;5.65;3.10;;;14.00;92.10;;;;;;5068749;28;20028;-64
2021/11/06 11:55:14;;;;;;;5.85;3.28;;;14.00;92.00;;;;;;5089554;28;20044;-63
2021/11/06 11:57:42;;;;;;;3.92;2.42;;;14.00;92.00;;;;;;5053816;28;20036;-65
2021/11/06 12:00:30;;;;;;;8.00;3.30;;;14.00;92.00;;;;;;5067519;28;20103;-65
2021/11/06 12:03:30;;;;;;;5.68;2.80;;;14.10;92.00;;;;;;5052317;28;20439;-65
2021/11/06 12:06:39;;;;;;;6.25;2.53;;;14.00;92.00;;;;;;5055065;28;20154;-66
2021/11/06 12:09:26;;;;;;;5.03;2.53;;;14.10;92.00;;;;;;5053908;28;20083;-65
2021/11/06 12:11:56;;;;;;;5.30;2.47;;;14.10;91.90;;;;;;5061734;28;20082;-64
2021/11/06 12:14:34;;;;;;;4.55;2.75;;;14.10;91.90;;;;;;5051912;28;20022;-64
2021/11/06 12:17:00;;;;;;;5.25;2.70;;;14.20;91.90;;;;;;5067942;28;20058;-63
2021/11/06 12:19:41;;;;;;;6.75;2.70;;;14.20;91.90;;;;;;5061322;28;20479;-65
2021/11/06 12:22:21;;;;;;;5.13;2.63;;;14.20;91.90;;;;;;5069201;28;20036;-66
2021/11/06 12:24:49;;;;;;;5.03;2.80;;;14.10;91.80;;;;;;5068773;28;20504;-65
2021/11/06 12:27:29;;;;;;;6.40;2.80;;;14.20;91.90;;;;;;5059669;28;20133;-65
2021/11/06 12:29:55;;;;;;;4.05;2.85;;;14.20;91.80;;;;;;5055799;28;20037;-65
2021/11/06 12:32:31;;;;;;;6.57;2.92;;;14.20;91.80;;;;;;5057068;28;20024;-65
2021/11/06 12:35:10;;;;;;;7.53;3.15;;;14.30;91.80;;;;;;5060033;28;20470;-66
2021/11/06 12:37:35;;;;;;;4.88;2.70;;;14.30;91.90;;;;;;5067899;28;20035;-65
2021/11/06 12:40:17;;;;;;;11.05;2.75;;;14.30;91.80;;;;;;5050788;28;20393;-64
2021/11/06 12:43:03;;;;;;;5.40;2.70;;;14.30;91.70;;;;;;5062373;28;20123;-64
2021/11/06 12:45:29;;;;;;;5.43;2.83;;;14.30;91.60;;;;;;5061221;28;20048;-64
2021/11/06 12:48:16;;;;;;;8.50;3.10;;;14.30;91.60;;;;;;5052403;28;20033;-64
2021/11/06 12:50:44;;;;;;;4.82;2.80;;;14.30;91.60;;;;;;5050474;28;20033;-65
2021/11/06 12:53:10;;;;;;;4.95;2.63;;;14.30;91.50;;;;;;5051627;28;20420;-64
2021/11/06 12:55:36;;;;;;;4.30;2.70;;;14.30;91.50;;;;;;5055865;28;20447;-64
2021/11/06 12:58:04;;;;;;;4.82;2.47;;;14.30;91.60;;;;;;5052385;28;20409;-64
2021/11/06 13:00:35;;;;;;;4.88;3.28;;;14.30;91.50;;;;;;5054963;28;20033;-64
2021/11/06 13:03:02;;;;;;;5.47;2.30;;;14.30;91.50;;;;;;5056739;28;20022;-64
2021/11/06 13:05:40;;;;;;;4.97;2.78;;;14.30;91.50;;;;;;5052973;28;20056;-64
2021/11/06 13:08:19;;;;;;;3.97;2.67;;;14.30;91.50;;;;;;5059430;28;20396;-64
2021/11/06 13:10:47;;;;;;;4.47;3.20;;;14.30;91.70;;;;;;5065163;28;20496;-64
2021/11/06 13:13:25;;;;;;;6.38;2.90;;;14.20;91.50;;;;;;5056295;28;20550;-64
2021/11/06 13:15:53;;;;;;;5.80;2.67;;;14.30;91.50;;;;;;5064400;28;20112;-63
2021/11/06 13:18:20;;;;;;;5.93;2.70;;;14.30;91.60;;;;;;5060897;28;20354;-64
2021/11/06 13:20:48;;;;;;;6.47;2.88;;;14.20;91.50;;;;;;5059510;28;20039;-64
2021/11/06 13:23:14;;;;;;;4.40;2.88;;;14.20;91.60;;;;;;5062593;28;20426;-64
2021/11/06 13:25:41;;;;;;;6.78;3.03;;;14.20;91.60;;;;;;5060535;28;20422;-64
2021/11/06 13:28:09;;;;;;;7.55;4.07;;;14.20;91.60;;;;;;5056104;28;20370;-64
2021/11/06 13:30:57;;;;;;;6.15;3.35;;;14.10;91.60;;;;;;5063757;28;20037;-64
2021/11/06 13:33:29;;;;;;;5.20;3.15;;;14.10;91.70;;;;;;5060815;28;20520;-65
2021/11/06 13:36:06;;;;;;;6.00;3.85;;;14.10;91.80;;;;;;5057864;28;20052;-65